createdAt,value
2022-10-23T00:01:29.749Z,8.18
2022-10-23T00:04:01.919Z,8.32
2022-10-23T00:06:31.840Z,9.20
2022-10-23T00:08:58.539Z,8.18
2022-10-23T00:11:27.651Z,8.57
2022-10-23T00:13:56.769Z,8.10
2022-10-23T00:16:23.416Z,8.15
2022-10-23T00:18:50.048Z,8.30
2022-10-23T00:21:17.444Z,8.50
2022-10-23T00:23:45.127Z,7.90
2022-10-23T00:26:15.613Z,7.55
2022-10-23T00:28:47.432Z,7.53
2022-10-23T00:31:14.720Z,7.28
2022-10-23T00:33:42.178Z,7.45
2022-10-23T00:36:11.624Z,7.93
2022-10-23T00:38:38.796Z,7.78
2022-10-23T00:41:07.200Z,7.32
2022-10-23T00:43:35.531Z,7.00
2022-10-23T00:46:02.215Z,6.43
2022-10-23T00:48:29.164Z,7.47
2022-10-23T00:50:56.477Z,7.10
2022-10-23T00:53:23.628Z,7.75
2022-10-23T00:55:53.077Z,7.22
2022-10-23T00:58:20.909Z,7.28
2022-10-23T01:00:53.438Z,7.63
2022-10-23T01:03:23.490Z,6.88
2022-10-23T01:06:25.626Z,7.18
2022-10-23T01:11:47.925Z,6.85
2022-10-23T01:14:54.636Z,6.25
2022-10-23T01:17:39.686Z,7.10
2022-10-23T01:20:27.059Z,6.55
2022-10-23T01:23:17.482Z,7.53
2022-10-23T01:26:15.837Z,7.22
2022-10-23T01:28:57.427Z,6.90
2022-10-23T01:31:50.929Z,8.07
2022-10-23T01:34:29.205Z,6.85
2022-10-23T01:36:59.087Z,6.65
2022-10-23T01:39:31.048Z,7.45
2022-10-23T01:42:08.520Z,7.80
2022-10-23T01:44:41.637Z,7.47
2022-10-23T01:47:10.825Z,7.65
2022-10-23T01:49:40.201Z,7.07
2022-10-23T01:52:11.531Z,7.38
2022-10-23T01:54:42.342Z,7.70
2022-10-23T01:57:12.940Z,7.43
2022-10-23T01:59:46.209Z,7.68
2022-10-23T02:02:14.442Z,7.53
2022-10-23T02:04:47.780Z,7.30
2022-10-23T02:07:14.444Z,8.90
2022-10-23T02:09:41.068Z,7.60
2022-10-23T02:12:13.232Z,7.63
2022-10-23T02:14:50.077Z,7.43
2022-10-23T02:17:44.754Z,7.93
2022-10-23T02:20:17.185Z,7.55
2022-10-23T02:23:02.833Z,7.35
2022-10-23T02:25:54.255Z,8.70
2022-10-23T02:28:26.160Z,7.68
2022-10-23T02:30:55.006Z,8.23
2022-10-23T02:33:22.952Z,8.25
2022-10-23T02:35:50.269Z,7.30
2022-10-23T02:38:30.300Z,9.00
2022-10-23T02:41:18.176Z,8.98
2022-10-23T02:43:57.370Z,7.97
2022-10-23T02:46:49.472Z,8.05
2022-10-23T02:52:13.239Z,7.30
2022-10-23T02:54:50.349Z,8.43
2022-10-23T02:57:29.869Z,9.07
2022-10-23T03:00:08.527Z,8.90
2022-10-23T03:02:43.151Z,8.02
2022-10-23T03:05:14.973Z,8.05
2022-10-23T03:10:09.918Z,7.93
2022-10-23T03:12:36.965Z,8.02
2022-10-23T03:15:04.657Z,7.93
2022-10-23T03:17:31.259Z,7.75
2022-10-23T03:19:57.874Z,7.80
2022-10-23T03:22:24.540Z,8.15
2022-10-23T03:24:51.168Z,8.93
2022-10-23T03:27:17.834Z,8.50
2022-10-23T03:29:44.474Z,8.05
2022-10-23T03:32:11.040Z,8.15
2022-10-23T03:34:37.685Z,8.52
2022-10-23T03:37:04.367Z,8.25
2022-10-23T03:39:30.920Z,8.38
2022-10-23T03:41:57.500Z,8.45
2022-10-23T03:44:24.079Z,8.80
2022-10-23T03:46:50.702Z,8.55
2022-10-23T03:49:17.262Z,8.50
2022-10-23T03:51:44.762Z,7.53
2022-10-23T03:54:11.559Z,8.20
2022-10-23T03:56:38.115Z,8.00
2022-10-23T03:59:04.975Z,8.45
2022-10-23T04:01:31.653Z,8.82
2022-10-23T04:03:58.285Z,7.80
2022-10-23T04:06:24.833Z,8.82
2022-10-23T04:08:51.543Z,8.52
2022-10-23T04:11:18.112Z,8.55
2022-10-23T04:13:44.754Z,10.55
2022-10-23T04:16:11.351Z,9.25
2022-10-23T04:18:39.764Z,8.77
2022-10-23T04:21:06.360Z,8.18
2022-10-23T04:23:33.067Z,8.98
2022-10-23T04:25:59.860Z,9.02
2022-10-23T04:28:27.193Z,8.70
2022-10-23T04:30:53.883Z,8.80
2022-10-23T04:33:21.384Z,8.45
2022-10-23T04:35:48.005Z,8.63
2022-10-23T04:38:14.585Z,8.57
2022-10-23T04:40:41.156Z,8.63
2022-10-23T04:43:07.874Z,7.53
2022-10-23T04:45:34.529Z,8.85
2022-10-23T04:48:01.093Z,8.25
2022-10-23T04:50:27.648Z,9.15
2022-10-23T04:52:55.592Z,8.63
2022-10-23T04:55:22.932Z,8.88
2022-10-23T04:57:49.541Z,10.07
2022-10-23T05:00:16.282Z,9.13
2022-10-23T05:02:43.085Z,8.93
2022-10-23T05:05:10.100Z,9.05
2022-10-23T05:07:37.268Z,8.18
2022-10-23T05:10:05.182Z,9.20
2022-10-23T05:12:31.841Z,8.30
2022-10-23T05:14:58.570Z,9.70
2022-10-23T05:17:34.428Z,8.10
2022-10-23T05:20:05.454Z,9.00
2022-10-23T05:22:36.902Z,8.77
2022-10-23T05:25:04.933Z,8.60
2022-10-23T05:27:31.635Z,9.32
2022-10-23T05:29:58.207Z,8.02
2022-10-23T05:32:27.319Z,8.10
2022-10-23T05:34:54.409Z,8.80
2022-10-23T05:37:21.541Z,8.20
2022-10-23T05:39:48.127Z,7.75
2022-10-23T05:42:14.707Z,8.38
2022-10-23T05:44:41.373Z,8.38
2022-10-23T05:47:08.213Z,7.75
2022-10-23T05:49:34.929Z,8.15
2022-10-23T05:52:01.472Z,7.93
2022-10-23T05:54:28.070Z,8.80
2022-10-23T05:56:55.976Z,8.23
2022-10-23T05:59:23.348Z,7.45
2022-10-23T06:01:50.417Z,7.63
2022-10-23T06:04:17.172Z,8.20
2022-10-23T06:06:46.449Z,6.68
2022-10-23T06:09:14.144Z,7.63
2022-10-23T06:11:41.565Z,6.75
2022-10-23T06:14:08.191Z,7.63
2022-10-23T06:16:34.797Z,6.88
2022-10-23T06:19:01.387Z,6.95
2022-10-23T06:21:28.141Z,6.78
2022-10-23T06:23:55.257Z,6.95
2022-10-23T06:26:21.868Z,7.43
2022-10-23T06:28:48.467Z,7.53
2022-10-23T06:31:18.042Z,6.35
2022-10-23T06:33:44.644Z,6.75
2022-10-23T06:36:11.408Z,6.85
2022-10-23T06:38:40.259Z,6.80
2022-10-23T06:41:16.042Z,6.63
2022-10-23T06:43:42.769Z,6.93
2022-10-23T06:46:10.038Z,6.65
2022-10-23T06:48:36.695Z,6.53
2022-10-23T06:51:08.875Z,7.40
2022-10-23T06:53:36.779Z,6.68
2022-10-23T06:56:05.115Z,7.35
2022-10-23T06:58:32.135Z,7.22
2022-10-23T07:01:02.520Z,6.97
2022-10-23T07:03:29.414Z,6.78
2022-10-23T07:05:56.167Z,7.30
2022-10-23T07:08:23.772Z,7.22
2022-10-23T07:10:50.379Z,7.05
2022-10-23T07:13:17.274Z,6.85
2022-10-23T07:15:44.128Z,6.90
2022-10-23T07:18:16.368Z,7.00
2022-10-23T07:20:43.215Z,7.18
2022-10-23T07:23:11.955Z,7.38
2022-10-23T07:25:38.618Z,7.32
2022-10-23T07:28:05.424Z,7.28
2022-10-23T07:30:32.127Z,7.55
2022-10-23T07:32:58.694Z,7.15
2022-10-23T07:35:25.352Z,7.00
2022-10-23T07:37:51.917Z,7.35
2022-10-23T07:40:18.846Z,6.88
2022-10-23T07:42:45.536Z,7.13
2022-10-23T07:45:12.502Z,6.75
2022-10-23T07:47:39.070Z,8.02
2022-10-23T07:50:06.249Z,6.75
2022-10-23T07:52:35.954Z,6.88
2022-10-23T07:55:02.930Z,7.93
2022-10-23T07:57:29.515Z,6.38
2022-10-23T07:59:56.066Z,7.20
2022-10-23T08:02:22.696Z,6.13
2022-10-23T08:04:50.384Z,7.80
2022-10-23T08:07:17.240Z,6.50
2022-10-23T08:09:43.803Z,6.80
2022-10-23T08:12:10.365Z,6.20
2022-10-23T08:14:37.068Z,6.15
2022-10-23T08:17:05.052Z,6.43
2022-10-23T08:19:32.136Z,6.30
2022-10-23T08:21:58.684Z,5.93
2022-10-23T08:24:25.333Z,6.05
2022-10-23T08:26:51.900Z,6.10
2022-10-23T08:29:18.637Z,5.97
2022-10-23T08:31:45.244Z,5.53
2022-10-23T08:34:11.921Z,6.28
2022-10-23T08:36:39.249Z,5.68
2022-10-23T08:39:06.989Z,6.47
2022-10-23T08:41:35.504Z,5.63
2022-10-23T08:44:22.773Z,5.82
2022-10-23T08:46:59.223Z,5.35
2022-10-23T08:49:49.119Z,5.70
2022-10-23T08:52:40.798Z,5.95
2022-10-23T08:55:24.309Z,5.70
2022-10-23T08:58:05.520Z,5.18
2022-10-23T09:00:32.459Z,6.82
2022-10-23T09:03:02.519Z,5.82
2022-10-23T09:05:31.884Z,5.70
2022-10-23T09:08:14.593Z,5.15
2022-10-23T09:10:46.043Z,4.95
2022-10-23T09:13:48.838Z,4.68
2022-10-23T09:16:27.293Z,4.93
2022-10-23T09:18:55.673Z,5.18
2022-10-23T09:21:27.574Z,4.85
2022-10-23T09:23:54.266Z,4.75
2022-10-23T09:26:20.915Z,5.10
2022-10-23T09:28:52.256Z,4.80
2022-10-23T09:31:19.661Z,4.38
2022-10-23T09:34:00.809Z,4.00
2022-10-23T09:36:29.453Z,4.78
2022-10-23T09:39:00.389Z,4.75
2022-10-23T09:41:39.464Z,4.23
2022-10-23T09:44:17.467Z,3.50
2022-10-23T09:49:26.429Z,3.65
2022-10-23T09:51:56.501Z,3.72
2022-10-23T09:54:24.106Z,4.20
2022-10-23T09:56:52.596Z,4.18
2022-10-23T09:59:29.663Z,4.30
2022-10-23T10:02:03.900Z,3.65
2022-10-23T10:04:40.108Z,4.07
2022-10-23T10:07:24.178Z,4.03
2022-10-23T10:09:52.370Z,4.05
2022-10-23T10:12:21.728Z,3.58
2022-10-23T10:14:54.029Z,4.82
2022-10-23T10:17:39.340Z,3.60
2022-10-23T10:20:24.317Z,3.70
2022-10-23T10:23:06.948Z,4.32
2022-10-23T10:25:33.476Z,3.60
2022-10-23T10:28:20.930Z,3.60
2022-10-23T10:31:05.581Z,3.38
2022-10-23T10:33:35.197Z,3.58
2022-10-23T10:36:11.866Z,3.55
2022-10-23T10:38:47.775Z,3.90
2022-10-23T10:41:36.789Z,3.47
2022-10-23T10:44:27.860Z,3.17
2022-10-23T10:47:27.276Z,3.27
2022-10-23T10:50:15.536Z,3.15
2022-10-23T10:52:59.247Z,3.65
2022-10-23T10:55:35.672Z,2.88
2022-10-23T10:58:10.667Z,3.72
2022-10-23T11:00:37.412Z,3.35
2022-10-23T11:03:37.613Z,2.80
2022-10-23T11:06:14.741Z,3.10
2022-10-23T11:08:56.247Z,3.10
2022-10-23T11:11:31.977Z,2.75
2022-10-23T11:13:58.871Z,3.20
2022-10-23T11:16:39.300Z,3.28
2022-10-23T11:19:26.923Z,2.78
2022-10-23T11:21:59.841Z,3.00
2022-10-23T11:24:49.568Z,3.55
2022-10-23T11:27:32.545Z,3.42
2022-10-23T11:33:28.961Z,3.17
2022-10-23T11:35:55.471Z,2.70
2022-10-23T11:38:29.688Z,2.90
2022-10-23T11:41:01.466Z,2.90
2022-10-23T11:43:46.723Z,3.00
2022-10-23T11:46:35.212Z,2.67
2022-10-23T11:49:05.777Z,2.53
2022-10-23T11:51:35.218Z,2.30
2022-10-23T11:54:17.012Z,2.63
2022-10-23T11:59:31.763Z,2.38
2022-10-23T12:02:01.554Z,1.88
2022-10-23T12:04:40.941Z,2.45
2022-10-23T12:07:30.785Z,1.88
2022-10-23T12:10:17.828Z,2.10
2022-10-23T12:12:58.635Z,2.13
2022-10-23T12:15:26.249Z,1.77
2022-10-23T12:18:16.924Z,1.70
2022-10-23T12:21:03.766Z,1.88
2022-10-23T12:23:41.230Z,1.80
2022-10-23T12:26:31.358Z,1.67
2022-10-23T12:29:30.954Z,1.73
2022-10-23T12:32:41.672Z,1.60
2022-10-23T12:35:08.402Z,1.75
2022-10-23T12:38:04.248Z,2.08
2022-10-23T12:40:31.034Z,1.95
2022-10-23T12:42:59.561Z,1.55
2022-10-23T12:45:33.830Z,1.60
2022-10-23T12:48:00.425Z,1.77
2022-10-23T12:50:29.715Z,1.92
2022-10-23T12:53:02.985Z,1.65
2022-10-23T12:55:45.588Z,2.25
2022-10-23T12:58:34.920Z,2.40
2022-10-23T13:01:05.032Z,2.70
2022-10-23T13:03:33.704Z,1.50
2022-10-23T13:06:02.876Z,1.75
2022-10-23T13:08:36.826Z,2.00
2022-10-23T13:11:04.440Z,2.47
2022-10-23T13:13:31.092Z,2.60
2022-10-23T13:15:57.680Z,2.15
2022-10-23T13:18:24.313Z,2.45
2022-10-23T13:20:53.968Z,2.33
2022-10-23T13:23:34.818Z,2.25
2022-10-23T13:26:06.495Z,2.50
2022-10-23T13:31:10.397Z,2.67
2022-10-23T13:33:45.773Z,2.20
2022-10-23T13:36:13.378Z,2.78
2022-10-23T13:39:04.457Z,2.67
2022-10-23T13:41:36.756Z,2.80
2022-10-23T13:44:03.520Z,2.55
2022-10-23T13:46:30.193Z,2.50
2022-10-23T13:48:56.781Z,2.70
2022-10-23T13:51:29.260Z,2.50
2022-10-23T13:53:57.383Z,2.10
2022-10-23T13:56:26.409Z,2.63
2022-10-23T13:58:53.847Z,2.40
2022-10-23T14:01:26.639Z,2.80
2022-10-23T14:03:54.650Z,2.47
2022-10-23T14:06:21.202Z,2.50
2022-10-23T14:08:47.875Z,2.83
2022-10-23T14:11:16.702Z,2.70
2022-10-23T14:13:43.761Z,2.40
2022-10-23T14:16:12.923Z,2.30
2022-10-23T14:18:39.797Z,2.83
2022-10-23T14:21:07.557Z,2.85
2022-10-23T14:23:34.202Z,3.42
2022-10-23T14:26:12.739Z,3.17
2022-10-23T14:28:39.518Z,3.03
2022-10-23T14:31:15.013Z,2.20
2022-10-23T14:33:42.655Z,2.92
2022-10-23T14:36:09.989Z,2.72
2022-10-23T14:38:36.991Z,2.97
2022-10-23T14:41:09.537Z,3.00
2022-10-23T14:43:36.117Z,2.78
2022-10-23T14:46:22.577Z,2.80
2022-10-23T14:48:52.734Z,2.70
2022-10-23T14:51:32.438Z,2.67
2022-10-23T14:54:03.949Z,2.63
2022-10-23T14:59:02.643Z,2.90
2022-10-23T15:01:31.413Z,2.28
2022-10-23T15:03:58.143Z,2.90
2022-10-23T15:06:25.047Z,2.13
2022-10-23T15:08:53.599Z,2.50
2022-10-23T15:11:20.478Z,2.72
2022-10-23T15:13:47.061Z,2.55
2022-10-23T15:16:14.201Z,2.78
2022-10-23T15:18:40.770Z,3.15
2022-10-23T15:21:08.765Z,3.28
2022-10-23T15:23:38.562Z,2.28
2022-10-23T15:26:08.303Z,2.92
2022-10-23T15:28:35.502Z,2.50
2022-10-23T15:31:02.071Z,2.95
2022-10-23T15:33:28.719Z,2.88
2022-10-23T15:35:55.480Z,3.40
2022-10-23T15:38:22.471Z,2.58
2022-10-23T15:40:49.400Z,2.80
2022-10-23T15:43:16.899Z,2.45
2022-10-23T15:45:43.613Z,2.80
2022-10-23T15:48:10.316Z,2.50
2022-10-23T15:50:37.183Z,2.78
2022-10-23T15:53:04.115Z,2.78
2022-10-23T15:55:30.727Z,2.60
2022-10-23T15:58:01.827Z,3.15
2022-10-23T16:00:28.446Z,2.90
2022-10-23T16:02:55.023Z,2.85
2022-10-23T16:05:21.629Z,2.78
2022-10-23T16:07:48.257Z,2.58
2022-10-23T16:10:14.820Z,2.80
2022-10-23T16:12:41.699Z,2.55
2022-10-23T16:15:09.056Z,2.70
2022-10-23T16:17:35.596Z,2.50
2022-10-23T16:20:02.174Z,2.83
2022-10-23T16:22:28.761Z,2.80
2022-10-23T16:24:55.495Z,2.92
2022-10-23T16:27:22.058Z,2.67
2022-10-23T16:29:48.674Z,3.00
2022-10-23T16:32:15.265Z,3.10
2022-10-23T16:34:41.890Z,3.80
2022-10-23T16:37:08.443Z,3.22
2022-10-23T16:39:36.032Z,3.10
2022-10-23T16:42:02.892Z,2.90
2022-10-23T16:44:29.510Z,3.45
2022-10-23T16:46:56.327Z,3.35
2022-10-23T16:49:22.961Z,3.05
2022-10-23T16:51:50.651Z,3.42
2022-10-23T16:54:17.747Z,3.08
2022-10-23T16:56:45.174Z,3.50
2022-10-23T16:59:11.757Z,3.80
2022-10-23T17:01:38.488Z,4.13
2022-10-23T17:04:06.380Z,3.83
2022-10-23T17:06:33.812Z,3.60
2022-10-23T17:09:01.490Z,3.22
2022-10-23T17:11:30.732Z,3.47
2022-10-23T17:14:00.651Z,3.13
2022-10-23T17:16:30.796Z,4.43
2022-10-23T17:18:58.076Z,3.50
2022-10-23T17:21:24.783Z,3.53
2022-10-23T17:23:52.578Z,3.50
2022-10-23T17:26:22.020Z,3.53
2022-10-23T17:28:49.156Z,4.05
2022-10-23T17:31:19.320Z,3.50
2022-10-23T17:33:47.502Z,3.42
2022-10-23T17:36:15.660Z,3.80
2022-10-23T17:38:45.999Z,4.10
2022-10-23T17:41:14.909Z,2.90
2022-10-23T17:43:42.000Z,3.47
2022-10-23T17:46:10.665Z,3.22
2022-10-23T17:48:39.215Z,3.50
2022-10-23T17:51:15.173Z,3.38
2022-10-23T17:53:45.225Z,3.13
2022-10-23T17:56:18.889Z,3.70
2022-10-23T17:58:46.398Z,3.47
2022-10-23T18:01:15.436Z,3.47
2022-10-23T18:03:42.819Z,3.55
2022-10-23T18:06:27.250Z,3.47
2022-10-23T18:08:56.547Z,3.88
2022-10-23T18:11:25.617Z,3.40
2022-10-23T18:13:53.969Z,4.40
2022-10-23T18:16:21.188Z,3.40
2022-10-23T18:18:48.715Z,3.90
2022-10-23T18:21:16.615Z,3.65
2022-10-23T18:23:43.388Z,3.42
2022-10-23T18:26:19.041Z,3.30
2022-10-23T18:28:46.963Z,3.50
2022-10-23T18:31:15.325Z,3.10
2022-10-23T18:33:42.884Z,3.72
2022-10-23T18:36:26.043Z,3.25
2022-10-23T18:38:52.870Z,3.03
2022-10-23T18:41:20.132Z,3.58
2022-10-23T18:43:46.767Z,3.20
2022-10-23T18:46:14.330Z,3.67
2022-10-23T18:48:42.088Z,2.75
2022-10-23T18:51:15.828Z,3.47
2022-10-23T18:53:45.684Z,3.10
2022-10-23T18:56:13.322Z,3.20
2022-10-23T18:58:40.099Z,3.80
2022-10-23T19:01:06.814Z,3.80
2022-10-23T19:03:33.547Z,3.90
2022-10-23T19:06:00.194Z,4.03
2022-10-23T19:08:26.769Z,3.80
2022-10-23T19:10:53.683Z,4.35
2022-10-23T19:13:21.265Z,3.90
2022-10-23T19:15:47.892Z,5.22
2022-10-23T19:18:14.484Z,3.97
2022-10-23T19:20:42.983Z,4.78
2022-10-23T19:23:12.714Z,4.25
2022-10-23T19:25:40.899Z,4.35
2022-10-23T19:28:07.464Z,3.85
2022-10-23T19:30:34.944Z,2.78
2022-10-23T19:33:01.686Z,3.30
2022-10-23T19:35:28.312Z,3.30
2022-10-23T19:37:54.927Z,3.42
2022-10-23T19:40:24.125Z,3.30
2022-10-23T19:42:51.116Z,3.70
2022-10-23T19:45:17.870Z,2.70
2022-10-23T19:47:46.146Z,2.80
2022-10-23T19:50:13.090Z,3.17
2022-10-23T19:52:39.676Z,3.00
2022-10-23T19:55:07.660Z,3.15
2022-10-23T19:57:34.329Z,2.58
2022-10-23T20:00:01.571Z,2.72
2022-10-23T20:02:28.362Z,3.42
2022-10-23T20:04:55.202Z,2.33
2022-10-23T20:07:22.137Z,2.83
2022-10-23T20:09:48.863Z,2.70
2022-10-23T20:12:15.532Z,2.40
2022-10-23T20:14:42.219Z,2.40
2022-10-23T20:17:08.919Z,2.40
2022-10-23T20:19:35.511Z,2.40
2022-10-23T20:22:02.115Z,2.15
2022-10-23T20:24:28.712Z,2.42
2022-10-23T20:26:56.170Z,2.03
2022-10-23T20:29:24.735Z,2.72
2022-10-23T20:31:51.768Z,2.53
2022-10-23T20:34:19.071Z,2.65
2022-10-23T20:36:48.588Z,2.95
2022-10-23T20:39:18.580Z,2.40
2022-10-23T20:41:45.467Z,2.40
2022-10-23T20:46:47.066Z,2.70
2022-10-23T20:49:14.646Z,2.15
2022-10-23T20:51:42.140Z,2.33
2022-10-23T20:54:09.113Z,2.45
2022-10-23T20:56:38.801Z,2.58
2022-10-23T20:59:12.367Z,2.65
2022-10-23T21:01:41.155Z,3.40
2022-10-23T21:04:07.828Z,4.80
2022-10-23T21:06:51.517Z,2.63
2022-10-23T21:09:21.469Z,2.20
2022-10-23T21:11:48.103Z,2.08
2022-10-23T21:14:14.661Z,1.80
2022-10-23T21:16:44.331Z,1.33
2022-10-23T21:19:13.194Z,1.70
2022-10-23T21:21:39.887Z,1.50
2022-10-23T21:24:08.984Z,1.45
2022-10-23T21:26:36.055Z,1.60
2022-10-23T21:29:17.574Z,1.17
2022-10-23T21:31:45.417Z,1.20
2022-10-23T21:34:12.193Z,1.30
2022-10-23T21:36:48.487Z,0.70
2022-10-23T21:39:25.652Z,1.38
2022-10-23T21:41:52.259Z,1.30
2022-10-23T21:44:18.875Z,1.98
2022-10-23T21:46:45.656Z,1.75
2022-10-23T21:49:12.683Z,2.60
2022-10-23T21:51:39.692Z,1.50
2022-10-23T21:54:10.204Z,1.30
2022-10-23T21:56:49.429Z,1.30
2022-10-23T21:59:19.629Z,1.48
2022-10-23T22:01:47.758Z,1.50
2022-10-23T22:04:18.257Z,1.33
2022-10-23T22:06:46.124Z,1.10
2022-10-23T22:09:15.314Z,1.65
2022-10-23T22:11:42.492Z,1.13
2022-10-23T22:14:09.092Z,1.00
2022-10-23T22:16:36.136Z,1.50
2022-10-23T22:19:03.570Z,1.10
2022-10-23T22:21:30.754Z,1.60
2022-10-23T22:23:59.681Z,1.30
2022-10-23T22:26:29.159Z,1.00
2022-10-23T22:28:58.653Z,1.10
2022-10-23T22:31:27.990Z,1.27
2022-10-23T22:33:55.734Z,1.30
2022-10-23T22:36:22.408Z,1.58
2022-10-23T22:38:49.205Z,1.30
2022-10-23T22:41:16.944Z,1.40
2022-10-23T22:43:43.679Z,2.13
2022-10-23T22:46:16.289Z,1.30
2022-10-23T22:48:43.357Z,1.55
2022-10-23T22:51:12.653Z,1.45
2022-10-23T22:53:39.315Z,2.38
2022-10-23T22:56:08.232Z,1.30
2022-10-23T22:58:35.226Z,1.63
2022-10-23T23:01:07.358Z,1.25
2022-10-23T23:03:36.179Z,2.25
2022-10-23T23:06:04.028Z,1.70
2022-10-23T23:08:30.969Z,1.70
2022-10-23T23:10:57.888Z,1.70
2022-10-23T23:13:25.868Z,1.40
2022-10-23T23:15:52.817Z,1.50
2022-10-23T23:18:19.820Z,1.52
2022-10-23T23:20:46.709Z,1.98
2022-10-23T23:23:14.116Z,1.77
2022-10-23T23:25:43.261Z,1.25
2022-10-23T23:28:12.112Z,1.70
2022-10-23T23:30:40.366Z,1.88
2022-10-23T23:33:08.008Z,1.80
2022-10-23T23:35:34.658Z,1.80
2022-10-23T23:38:01.242Z,1.85
2022-10-23T23:40:27.868Z,2.40
2022-10-23T23:42:54.444Z,1.80
2022-10-23T23:45:21.018Z,1.80
2022-10-23T23:47:47.816Z,2.08
2022-10-23T23:50:15.615Z,2.08
2022-10-23T23:52:42.276Z,2.53
2022-10-23T23:55:09.347Z,2.22
2022-10-23T23:57:35.914Z,1.90
